createdAt,value
2023-01-17T00:02:06.357Z,6.81
2023-01-17T00:04:52.271Z,6.86
2023-01-17T00:07:38.914Z,6.67
2023-01-17T00:10:16.375Z,6.62
2023-01-17T00:12:48.474Z,6.78
2023-01-17T00:15:16.757Z,6.84
2023-01-17T00:17:43.994Z,6.82
2023-01-17T00:20:33.856Z,6.71
2023-01-17T00:23:20.114Z,6.67
2023-01-17T00:26:05.733Z,6.60
2023-01-17T00:28:36.858Z,6.53
2023-01-17T00:31:05.471Z,6.65
2023-01-17T00:33:32.869Z,6.55
2023-01-17T00:36:01.118Z,6.55
2023-01-17T00:38:30.060Z,6.51
2023-01-17T00:41:23.656Z,6.41
2023-01-17T00:44:10.693Z,6.35
2023-01-17T00:46:56.956Z,6.47
2023-01-17T00:49:42.840Z,6.50
2023-01-17T00:52:29.150Z,6.54
2023-01-17T00:55:15.135Z,6.64
2023-01-17T00:58:01.063Z,6.50
2023-01-17T01:00:47.959Z,6.53
2023-01-17T01:03:36.004Z,6.48
2023-01-17T01:06:25.153Z,6.34
2023-01-17T01:09:11.828Z,6.31
2023-01-17T01:11:57.572Z,6.19
2023-01-17T01:14:43.967Z,6.25
2023-01-17T01:17:30.075Z,6.38
2023-01-17T01:20:15.928Z,6.36
2023-01-17T01:23:01.875Z,6.44
2023-01-17T01:25:48.477Z,6.42
2023-01-17T01:28:34.893Z,6.31
2023-01-17T01:31:21.695Z,6.39
2023-01-17T01:33:50.597Z,6.36
2023-01-17T01:36:17.948Z,6.32
2023-01-17T01:38:46.090Z,6.41
2023-01-17T01:41:13.582Z,6.31
2023-01-17T01:43:43.589Z,6.29
2023-01-17T01:46:16.748Z,6.19
2023-01-17T01:48:48.048Z,6.09
2023-01-17T01:51:18.435Z,5.99
2023-01-17T01:53:48.027Z,6.03
2023-01-17T01:56:16.588Z,6.11
2023-01-17T01:58:46.461Z,6.07
2023-01-17T02:01:14.635Z,5.98
2023-01-17T02:03:42.425Z,6.18
2023-01-17T02:06:28.307Z,6.27
2023-01-17T02:08:57.672Z,6.27
2023-01-17T02:11:25.518Z,6.18
2023-01-17T02:13:52.899Z,6.26
2023-01-17T02:16:33.086Z,6.11
2023-01-17T02:19:21.485Z,6.04
2023-01-17T02:21:49.360Z,6.15
2023-01-17T02:24:19.520Z,6.06
2023-01-17T02:27:05.739Z,6.22
2023-01-17T02:29:51.475Z,6.25
2023-01-17T02:32:21.993Z,6.24
2023-01-17T02:34:49.496Z,6.34
2023-01-17T02:37:16.929Z,6.02
2023-01-17T02:39:51.057Z,6.10
2023-01-17T02:42:20.000Z,6.19
2023-01-17T02:44:48.196Z,6.39
2023-01-17T02:47:34.548Z,6.49
2023-01-17T02:50:02.233Z,6.59
2023-01-17T02:52:47.164Z,6.73
2023-01-17T02:55:33.255Z,6.65
2023-01-17T02:58:01.321Z,6.68
2023-01-17T03:00:34.686Z,6.72
2023-01-17T03:03:06.658Z,6.61
2023-01-17T03:05:41.667Z,6.49
2023-01-17T03:08:11.143Z,6.68
2023-01-17T03:10:39.545Z,6.62
2023-01-17T03:13:07.924Z,6.63
2023-01-17T03:15:35.201Z,6.58
2023-01-17T03:18:05.189Z,6.51
2023-01-17T03:20:34.012Z,6.49
2023-01-17T03:23:04.595Z,6.37
2023-01-17T03:25:32.374Z,6.35
2023-01-17T03:28:00.187Z,6.08
2023-01-17T03:30:28.125Z,6.03
2023-01-17T03:32:55.421Z,5.90
2023-01-17T03:35:23.702Z,5.92
2023-01-17T03:37:51.547Z,5.74
2023-01-17T03:40:18.949Z,5.63
2023-01-17T03:42:46.254Z,5.50
2023-01-17T03:45:13.765Z,5.58
2023-01-17T03:47:41.056Z,5.40
2023-01-17T03:50:09.538Z,5.46
2023-01-17T03:52:37.525Z,5.40
2023-01-17T03:55:05.960Z,5.43
2023-01-17T03:57:33.917Z,5.42
2023-01-17T04:00:01.256Z,5.33
2023-01-17T04:02:28.910Z,5.30
2023-01-17T04:04:56.299Z,5.37
2023-01-17T04:07:23.713Z,5.51
2023-01-17T04:09:51.031Z,5.76
2023-01-17T04:12:18.557Z,5.63
2023-01-17T04:14:46.092Z,5.71
2023-01-17T04:17:14.413Z,5.77
2023-01-17T04:19:42.302Z,5.81
2023-01-17T04:22:09.865Z,5.99
2023-01-17T04:24:37.561Z,6.06
2023-01-17T04:27:09.180Z,6.21
2023-01-17T04:29:36.580Z,6.25
2023-01-17T04:32:05.464Z,6.19
2023-01-17T04:34:33.247Z,6.25
2023-01-17T04:37:01.370Z,6.20
2023-01-17T04:39:28.771Z,6.36
2023-01-17T04:41:56.334Z,6.12
2023-01-17T04:44:24.056Z,6.13
2023-01-17T04:46:51.353Z,6.19
2023-01-17T04:49:19.056Z,6.33
2023-01-17T04:51:46.992Z,6.31
2023-01-17T04:54:14.292Z,6.23
2023-01-17T04:56:41.703Z,6.29
2023-01-17T04:59:09.422Z,6.39
2023-01-17T05:01:37.214Z,6.38
2023-01-17T05:04:05.235Z,6.42
2023-01-17T05:06:33.250Z,6.48
2023-01-17T05:09:00.755Z,6.40
2023-01-17T05:11:28.483Z,6.47
2023-01-17T05:13:55.877Z,6.53
2023-01-17T05:16:23.245Z,6.43
2023-01-17T05:18:51.470Z,6.39
2023-01-17T05:21:19.260Z,6.47
2023-01-17T05:23:47.497Z,6.53
2023-01-17T05:26:15.037Z,6.56
2023-01-17T05:28:42.939Z,6.51
2023-01-17T05:31:10.716Z,6.57
2023-01-17T05:33:38.182Z,6.21
2023-01-17T05:36:05.660Z,6.39
2023-01-17T05:38:33.348Z,6.27
2023-01-17T05:41:01.930Z,6.15
2023-01-17T05:43:29.249Z,6.06
2023-01-17T05:45:57.142Z,5.84
2023-01-17T05:48:24.470Z,5.93
2023-01-17T05:50:52.329Z,5.86
2023-01-17T05:53:19.758Z,5.71
2023-01-17T05:55:49.633Z,5.50
2023-01-17T05:58:18.829Z,5.59
2023-01-17T06:00:46.786Z,5.68
2023-01-17T06:03:14.547Z,5.71
2023-01-17T06:05:43.032Z,5.56
2023-01-17T06:08:10.964Z,5.50
2023-01-17T06:10:38.467Z,5.44
2023-01-17T06:13:10.206Z,5.70
2023-01-17T06:15:38.455Z,5.84
2023-01-17T06:18:09.973Z,5.84
2023-01-17T06:20:37.628Z,5.51
2023-01-17T06:23:05.446Z,5.41
2023-01-17T06:25:40.736Z,5.60
2023-01-17T06:28:11.378Z,5.50
2023-01-17T06:30:38.877Z,5.37
2023-01-17T06:33:06.261Z,5.39
2023-01-17T06:35:33.663Z,5.30
2023-01-17T06:38:01.031Z,5.44
2023-01-17T06:40:31.162Z,5.51
2023-01-17T06:43:02.386Z,5.39
2023-01-17T06:45:30.173Z,5.44
2023-01-17T06:47:59.322Z,5.44
2023-01-17T06:50:27.209Z,5.47
2023-01-17T06:52:56.335Z,5.52
2023-01-17T06:55:23.912Z,5.51
2023-01-17T06:57:51.752Z,5.52
2023-01-17T07:00:19.344Z,5.61
2023-01-17T07:02:49.319Z,5.48
2023-01-17T07:05:17.286Z,5.62
2023-01-17T07:07:45.319Z,5.33
2023-01-17T07:10:14.275Z,5.19
2023-01-17T07:12:42.120Z,5.37
2023-01-17T07:15:09.865Z,5.21
2023-01-17T07:17:38.278Z,5.41
2023-01-17T07:20:06.626Z,5.66
2023-01-17T07:22:34.088Z,5.46
2023-01-17T07:25:01.573Z,5.21
2023-01-17T07:27:30.796Z,5.37
2023-01-17T07:29:58.399Z,5.24
2023-01-17T07:32:28.341Z,5.36
2023-01-17T07:34:57.984Z,5.35
2023-01-17T07:37:26.451Z,5.45
2023-01-17T07:39:54.603Z,5.48
2023-01-17T07:42:24.248Z,5.22
2023-01-17T07:44:51.873Z,5.24
2023-01-17T07:47:20.049Z,5.13
2023-01-17T07:49:47.445Z,5.20
2023-01-17T07:52:18.026Z,5.08
2023-01-17T07:54:46.487Z,5.14
2023-01-17T07:57:14.383Z,5.21
2023-01-17T07:59:41.705Z,5.42
2023-01-17T08:02:15.409Z,5.47
2023-01-17T08:04:43.791Z,5.61
2023-01-17T08:07:11.418Z,5.99
2023-01-17T08:09:38.919Z,5.98
2023-01-17T08:12:06.488Z,5.88
2023-01-17T08:14:33.860Z,5.78
2023-01-17T08:17:08.879Z,5.75
2023-01-17T08:19:37.107Z,5.89
2023-01-17T08:22:04.649Z,6.39
2023-01-17T08:24:32.499Z,6.28
2023-01-17T08:26:59.866Z,6.50
2023-01-17T08:29:27.253Z,6.13
2023-01-17T08:31:55.152Z,6.09
2023-01-17T08:34:22.529Z,6.28
2023-01-17T08:36:52.915Z,6.28
2023-01-17T08:39:21.071Z,6.27
2023-01-17T08:41:48.593Z,6.20
2023-01-17T08:44:16.197Z,6.32
2023-01-17T08:46:44.283Z,6.46
2023-01-17T08:49:12.042Z,6.30
2023-01-17T08:51:40.127Z,6.18
2023-01-17T08:54:09.785Z,6.16
2023-01-17T08:56:37.067Z,6.08
2023-01-17T08:59:04.426Z,6.05
2023-01-17T09:01:42.060Z,5.92
2023-01-17T09:04:10.066Z,6.04
2023-01-17T09:06:38.554Z,6.05
2023-01-17T09:09:07.391Z,6.08
2023-01-17T09:11:35.474Z,6.10
2023-01-17T09:14:03.039Z,6.16
2023-01-17T09:16:30.839Z,6.15
2023-01-17T09:18:59.545Z,6.19
2023-01-17T09:21:27.146Z,6.04
2023-01-17T09:23:56.093Z,6.13
2023-01-17T09:26:24.941Z,6.10
2023-01-17T09:28:52.801Z,6.17
2023-01-17T09:31:21.947Z,6.04
2023-01-17T09:33:50.163Z,6.04
2023-01-17T09:36:18.016Z,6.08
2023-01-17T09:38:45.947Z,6.09
2023-01-17T09:41:28.357Z,6.27
2023-01-17T09:43:59.260Z,6.29
2023-01-17T09:46:29.596Z,6.12
2023-01-17T09:49:03.738Z,6.21
2023-01-17T09:51:31.741Z,6.33
2023-01-17T09:54:00.290Z,6.20
2023-01-17T09:56:49.462Z,6.34
2023-01-17T09:59:33.220Z,6.27
2023-01-17T10:02:24.987Z,6.48
2023-01-17T10:05:12.653Z,6.44
2023-01-17T10:07:58.443Z,6.31
2023-01-17T10:10:26.652Z,6.48
2023-01-17T10:12:54.105Z,6.45
2023-01-17T10:15:21.547Z,6.28
2023-01-17T10:17:49.292Z,6.56
2023-01-17T10:20:41.807Z,6.43
2023-01-17T10:23:12.628Z,6.48
2023-01-17T10:26:00.494Z,6.40
2023-01-17T10:28:33.433Z,6.33
2023-01-17T10:31:04.558Z,6.57
2023-01-17T10:33:38.090Z,6.51
2023-01-17T10:36:10.782Z,6.77
2023-01-17T10:38:41.053Z,6.82
2023-01-17T10:41:14.423Z,6.79
2023-01-17T10:43:54.400Z,6.86
2023-01-17T10:46:28.674Z,6.81
2023-01-17T10:48:56.961Z,6.45
2023-01-17T10:51:30.903Z,6.35
2023-01-17T10:54:10.816Z,6.31
2023-01-17T10:56:40.320Z,6.39
2023-01-17T10:59:15.924Z,6.31
2023-01-17T11:01:44.213Z,6.13
2023-01-17T11:04:22.749Z,6.04
2023-01-17T11:07:08.630Z,6.03
2023-01-17T11:09:41.868Z,6.15
2023-01-17T11:12:20.812Z,6.13
2023-01-17T11:14:54.493Z,6.19
2023-01-17T11:17:22.428Z,6.29
2023-01-17T11:19:51.929Z,6.26
2023-01-17T11:22:20.116Z,6.21
2023-01-17T11:24:49.867Z,6.16
2023-01-17T11:27:24.970Z,6.24
2023-01-17T11:30:11.481Z,6.34
2023-01-17T11:32:38.984Z,6.27
2023-01-17T11:35:14.075Z,6.34
2023-01-17T11:38:04.434Z,6.44
2023-01-17T11:40:36.494Z,6.31
2023-01-17T11:43:05.565Z,6.20
2023-01-17T11:45:34.620Z,6.53
2023-01-17T11:48:05.937Z,6.21
2023-01-17T11:50:35.227Z,6.30
2023-01-17T11:53:07.246Z,6.33
2023-01-17T11:55:34.905Z,6.12
2023-01-17T11:58:02.402Z,6.31
2023-01-17T12:00:52.545Z,6.44
2023-01-17T12:03:38.443Z,6.68
2023-01-17T12:06:14.964Z,6.66
2023-01-17T12:08:45.124Z,6.63
2023-01-17T12:11:35.920Z,6.66
2023-01-17T12:14:21.573Z,6.90
2023-01-17T12:16:52.588Z,6.89
2023-01-17T12:19:25.863Z,7.35
2023-01-17T12:22:05.138Z,7.44
2023-01-17T12:24:51.626Z,7.28
2023-01-17T12:27:19.416Z,7.40
2023-01-17T12:30:07.626Z,7.11
2023-01-17T12:32:44.510Z,7.39
2023-01-17T12:35:17.681Z,7.60
2023-01-17T12:37:52.665Z,7.64
2023-01-17T12:40:46.709Z,7.62
2023-01-17T12:43:19.990Z,7.79
2023-01-17T12:45:49.424Z,7.76
2023-01-17T12:48:17.807Z,8.01
2023-01-17T12:50:45.011Z,8.13
2023-01-17T12:53:24.241Z,8.08
2023-01-17T12:56:00.256Z,8.28
2023-01-17T12:58:30.714Z,8.18
2023-01-17T13:01:27.301Z,8.09
2023-01-17T13:04:18.655Z,8.26
2023-01-17T13:06:52.602Z,8.40
2023-01-17T13:09:22.437Z,8.28
2023-01-17T13:12:11.105Z,8.15
2023-01-17T13:14:38.977Z,8.11
2023-01-17T13:17:25.303Z,7.74
2023-01-17T13:19:52.599Z,7.90
2023-01-17T13:22:23.027Z,7.81
2023-01-17T13:25:00.386Z,7.56
2023-01-17T13:27:34.289Z,7.31
2023-01-17T13:30:15.371Z,7.41
2023-01-17T13:32:48.642Z,7.40
2023-01-17T13:35:22.167Z,7.68
2023-01-17T13:38:00.254Z,7.76
2023-01-17T13:40:35.376Z,7.92
2023-01-17T13:43:04.690Z,8.17
2023-01-17T13:45:35.939Z,8.40
2023-01-17T13:48:12.480Z,8.40
2023-01-17T13:51:12.535Z,8.48
2023-01-17T13:53:40.004Z,8.15
2023-01-17T13:56:20.380Z,7.98
2023-01-17T13:58:54.848Z,7.79
2023-01-17T14:01:22.533Z,7.66
2023-01-17T14:03:50.221Z,7.51
2023-01-17T14:06:36.479Z,7.32
2023-01-17T14:09:19.483Z,7.42
2023-01-17T14:11:54.920Z,7.77
2023-01-17T14:14:37.658Z,7.90
2023-01-17T14:17:25.580Z,8.19
2023-01-17T14:19:54.492Z,8.41
2023-01-17T14:22:21.825Z,8.65
2023-01-17T14:25:09.784Z,8.46
2023-01-17T14:27:45.760Z,7.86
2023-01-17T14:30:16.550Z,7.94
2023-01-17T14:33:04.543Z,7.85
2023-01-17T14:35:33.068Z,7.96
2023-01-17T14:38:05.499Z,8.22
2023-01-17T14:40:34.461Z,7.96
2023-01-17T14:43:01.917Z,7.56
2023-01-17T14:45:30.786Z,7.51
2023-01-17T14:47:59.182Z,7.48
2023-01-17T14:50:35.036Z,7.47
2023-01-17T14:53:27.993Z,7.33
2023-01-17T14:55:57.928Z,7.22
2023-01-17T14:58:25.283Z,7.14
2023-01-17T15:00:57.652Z,7.12
2023-01-17T15:03:25.346Z,7.34
2023-01-17T15:05:54.180Z,7.39
2023-01-17T15:08:23.448Z,7.38
2023-01-17T15:11:05.315Z,7.31
2023-01-17T15:13:44.652Z,7.29
2023-01-17T15:16:18.876Z,7.23
2023-01-17T15:18:46.415Z,7.09
2023-01-17T15:21:16.218Z,7.21
2023-01-17T15:23:45.861Z,7.16
2023-01-17T15:26:15.155Z,7.16
2023-01-17T15:28:44.863Z,7.09
2023-01-17T15:31:15.362Z,7.10
2023-01-17T15:33:47.089Z,6.97
2023-01-17T15:36:20.685Z,7.02
2023-01-17T15:38:54.030Z,7.06
2023-01-17T15:41:24.676Z,6.97
2023-01-17T15:43:57.529Z,7.10
2023-01-17T15:46:29.000Z,7.14
2023-01-17T15:49:17.318Z,7.13
2023-01-17T15:51:55.410Z,7.04
2023-01-17T15:54:29.274Z,7.09
2023-01-17T15:57:03.119Z,7.02
2023-01-17T15:59:37.586Z,6.98
2023-01-17T16:02:23.374Z,6.99
2023-01-17T16:04:51.205Z,6.91
2023-01-17T16:07:20.693Z,6.95
2023-01-17T16:09:49.016Z,6.84
2023-01-17T16:12:17.000Z,6.88
2023-01-17T16:14:59.549Z,7.04
2023-01-17T16:17:32.718Z,7.04
2023-01-17T16:20:00.454Z,6.81
2023-01-17T16:22:28.415Z,6.87
2023-01-17T16:24:56.986Z,6.94
2023-01-17T16:27:24.506Z,6.84
2023-01-17T16:29:52.298Z,6.72
2023-01-17T16:32:20.030Z,6.66
2023-01-17T16:34:48.265Z,6.65
2023-01-17T16:37:16.285Z,6.75
2023-01-17T16:39:44.065Z,6.76
2023-01-17T16:42:12.547Z,6.74
2023-01-17T16:44:39.836Z,6.78
2023-01-17T16:47:07.217Z,6.85
2023-01-17T16:49:34.617Z,6.90
2023-01-17T16:52:02.058Z,6.90
2023-01-17T16:54:29.875Z,6.81
2023-01-17T16:56:57.808Z,6.70
2023-01-17T16:59:26.081Z,6.73
2023-01-17T17:01:54.884Z,6.72
2023-01-17T17:04:22.526Z,6.62
2023-01-17T17:06:50.314Z,6.69
2023-01-17T17:09:18.361Z,6.76
2023-01-17T17:11:45.595Z,6.76
2023-01-17T17:14:13.131Z,6.72
2023-01-17T17:16:40.449Z,6.86
2023-01-17T17:19:08.298Z,6.81
2023-01-17T17:21:37.555Z,6.88
2023-01-17T17:24:05.519Z,6.66
2023-01-17T17:26:35.064Z,6.71
2023-01-17T17:29:03.034Z,6.76
2023-01-17T17:31:30.557Z,6.67
2023-01-17T17:34:00.142Z,6.59
2023-01-17T17:36:28.153Z,6.59
2023-01-17T17:38:56.664Z,6.71
2023-01-17T17:41:26.382Z,6.59
2023-01-17T17:43:54.139Z,6.71
2023-01-17T17:46:22.145Z,6.79
2023-01-17T17:48:49.829Z,6.72
2023-01-17T17:51:27.976Z,6.67
2023-01-17T17:54:00.493Z,6.74
2023-01-17T17:56:28.976Z,6.60
2023-01-17T17:58:57.107Z,6.69
2023-01-17T18:01:25.056Z,6.51
2023-01-17T18:03:52.990Z,6.60
2023-01-17T18:06:20.641Z,6.63
2023-01-17T18:08:48.371Z,6.72
2023-01-17T18:11:18.590Z,6.62
2023-01-17T18:13:52.913Z,6.49
2023-01-17T18:16:41.506Z,6.58
2023-01-17T18:19:12.969Z,6.64
2023-01-17T18:21:40.417Z,6.64
2023-01-17T18:24:12.496Z,6.64
2023-01-17T18:26:41.720Z,6.76
2023-01-17T18:29:11.039Z,6.62
2023-01-17T18:31:38.443Z,6.50
2023-01-17T18:34:07.439Z,6.66
2023-01-17T18:36:35.222Z,6.72
2023-01-17T18:39:04.375Z,6.69
2023-01-17T18:41:32.417Z,6.86
2023-01-17T18:44:04.068Z,6.60
2023-01-17T18:46:32.270Z,6.50
2023-01-17T18:48:59.629Z,6.53
2023-01-17T18:51:29.168Z,6.46
2023-01-17T18:53:58.072Z,6.54
2023-01-17T18:56:26.249Z,6.46
2023-01-17T18:58:53.556Z,6.58
2023-01-17T19:01:34.305Z,6.49
2023-01-17T19:04:04.458Z,6.57
2023-01-17T19:06:36.519Z,6.46
2023-01-17T19:09:04.589Z,6.36
2023-01-17T19:11:31.957Z,6.29
2023-01-17T19:13:59.765Z,6.29
2023-01-17T19:16:28.525Z,6.45
2023-01-17T19:18:57.470Z,6.46
2023-01-17T19:21:25.831Z,6.41
2023-01-17T19:23:54.385Z,6.37
2023-01-17T19:26:24.717Z,6.37
2023-01-17T19:28:52.179Z,6.39
2023-01-17T19:31:24.520Z,6.33
2023-01-17T19:33:53.596Z,6.30
2023-01-17T19:36:23.530Z,6.32
2023-01-17T19:39:03.389Z,6.39
2023-01-17T19:41:31.859Z,6.19
2023-01-17T19:44:00.452Z,6.36
2023-01-17T19:46:28.329Z,6.43
2023-01-17T19:48:57.096Z,6.35
2023-01-17T19:51:24.901Z,6.38
2023-01-17T19:53:53.845Z,6.34
2023-01-17T19:56:22.853Z,6.43
2023-01-17T19:58:50.956Z,6.48
2023-01-17T20:01:20.518Z,6.45
2023-01-17T20:03:51.190Z,6.35
2023-01-17T20:06:19.685Z,6.44
2023-01-17T20:08:47.109Z,6.44
2023-01-17T20:11:16.041Z,6.40
2023-01-17T20:13:43.905Z,6.41
2023-01-17T20:16:12.120Z,6.45
2023-01-17T20:20:13.834Z,6.40
2023-01-17T20:22:45.899Z,6.56
2023-01-17T20:25:14.552Z,6.56
2023-01-17T20:27:42.935Z,6.29
2023-01-17T20:30:20.193Z,6.20
2023-01-17T20:32:48.271Z,6.24
2023-01-17T20:35:16.206Z,6.34
2023-01-17T20:37:44.131Z,6.30
2023-01-17T20:40:12.728Z,6.31
2023-01-17T20:42:41.201Z,6.24
2023-01-17T20:45:09.414Z,6.29
2023-01-17T20:47:37.048Z,6.31
2023-01-17T20:50:06.058Z,6.19
2023-01-17T20:52:33.648Z,6.14
2023-01-17T20:55:01.819Z,6.26
2023-01-17T20:57:31.517Z,6.29
2023-01-17T20:59:59.112Z,6.39
2023-01-17T21:02:28.371Z,6.31
2023-01-17T21:04:56.356Z,6.34
2023-01-17T21:07:25.978Z,6.26
2023-01-17T21:09:54.117Z,6.26
2023-01-17T21:12:21.694Z,6.30
2023-01-17T21:14:49.160Z,6.35
2023-01-17T21:17:17.354Z,6.38
2023-01-17T21:19:44.903Z,6.38
2023-01-17T21:22:16.642Z,6.25
2023-01-17T21:24:44.275Z,6.16
2023-01-17T21:27:12.937Z,6.17
2023-01-17T21:29:40.423Z,6.09
2023-01-17T21:32:08.727Z,6.06
2023-01-17T21:34:36.256Z,6.05
2023-01-17T21:37:04.185Z,6.03
2023-01-17T21:39:31.797Z,6.06
2023-01-17T21:41:59.266Z,6.03
2023-01-17T21:44:27.223Z,6.04
2023-01-17T21:46:56.606Z,5.94
2023-01-17T21:49:24.460Z,5.99
2023-01-17T21:51:55.032Z,6.05
2023-01-17T21:54:45.175Z,5.98
2023-01-17T21:57:37.298Z,5.85
2023-01-17T22:00:12.089Z,5.71
2023-01-17T22:02:40.971Z,5.66
2023-01-17T22:05:10.020Z,5.79
2023-01-17T22:07:39.086Z,5.77
2023-01-17T22:10:08.402Z,5.65
2023-01-17T22:12:35.875Z,5.63
2023-01-17T22:15:04.208Z,5.57
2023-01-17T22:17:31.922Z,5.64
2023-01-17T22:19:59.526Z,5.47
2023-01-17T22:22:27.009Z,5.52
2023-01-17T22:24:54.565Z,5.41
2023-01-17T22:27:22.391Z,5.39
2023-01-17T22:29:50.767Z,5.34
2023-01-17T22:32:18.318Z,5.23
2023-01-17T22:34:46.156Z,5.38
2023-01-17T22:37:14.627Z,5.44
2023-01-17T22:39:42.099Z,5.48
2023-01-17T22:42:09.733Z,5.46
2023-01-17T22:44:37.207Z,5.41
2023-01-17T22:47:05.722Z,5.52
2023-01-17T22:49:33.260Z,5.45
2023-01-17T22:52:01.188Z,5.54
2023-01-17T22:54:28.737Z,5.48
2023-01-17T22:56:56.389Z,5.37
2023-01-17T22:59:24.153Z,5.40
2023-01-17T23:01:52.097Z,5.47
2023-01-17T23:04:19.670Z,5.46
2023-01-17T23:06:48.268Z,5.60
2023-01-17T23:09:17.361Z,5.59
2023-01-17T23:11:49.878Z,5.63
2023-01-17T23:14:22.140Z,5.60
2023-01-17T23:17:27.126Z,5.65
2023-01-17T23:19:54.897Z,5.54
2023-01-17T23:22:27.613Z,5.62
2023-01-17T23:25:06.931Z,5.61
2023-01-17T23:28:04.374Z,5.81
2023-01-17T23:30:38.105Z,5.89
2023-01-17T23:33:08.855Z,5.75
2023-01-17T23:35:41.631Z,5.83
2023-01-17T23:38:29.473Z,5.70
2023-01-17T23:41:26.998Z,5.60
2023-01-17T23:43:56.678Z,5.73
2023-01-17T23:46:25.637Z,5.68
2023-01-17T23:48:53.228Z,5.61
2023-01-17T23:51:20.874Z,5.62
2023-01-17T23:53:48.583Z,5.55
2023-01-17T23:56:22.359Z,5.42
2023-01-17T23:58:50.468Z,5.50
